Time;durP1;ratioP1;P1;durP2;ratioP2;P2;SDS_P1;SDS_P2;PMS_P1;PMS_P2;Temp;Humidity;BMP_temperature;BMP_pressure;BME280_temperature;BME280_humidity;BME280_pressure;Samples;Min_cycle;Max_cycle;Signal;HPM_P1;HPM_P2
2023/07/10 00:02:43;;;;;;;4.10;1.70;;;;;;;24.28;45.08;102002.13;16122957;19;129740;-57
2023/07/10 00:08:05;;;;;;;5.25;1.90;;;;;;;24.28;45.07;101979.75;16127765;19;131244;-58
2023/07/10 00:13:29;;;;;;;4.28;1.58;;;;;;;24.29;44.88;101961.00;16131172;19;130952;-58
2023/07/10 00:18:52;;;;;;;2.72;1.63;;;;;;;24.29;45.28;101972.19;16125895;19;130479;-57
2023/07/10 00:24:14;;;;;;;4.15;1.83;;;;;;;24.27;44.97;101984.47;16129059;19;134321;-57
2023/07/10 00:29:36;;;;;;;2.47;1.63;;;;;;;24.27;44.97;101983.63;16119883;19;130019;-55
2023/07/10 00:34:58;;;;;;;3.30;1.83;;;;;;;24.27;44.98;101976.09;16124907;19;130356;-56
2023/07/10 00:40:22;;;;;;;2.10;1.45;;;;;;;24.27;44.78;101970.50;16123415;19;130531;-59
2023/07/10 00:45:44;;;;;;;3.45;1.40;;;;;;;24.27;45.11;101981.66;16119674;19;132299;-59
2023/07/10 00:51:18;;;;;;;3.88;1.67;;;;;;;24.29;44.70;101989.81;16124983;19;130467;-57
2023/07/10 00:56:45;;;;;;;3.33;1.42;;;;;;;24.29;44.93;101977.78;16128264;19;129671;-57
2023/07/10 01:02:07;;;;;;;3.08;1.60;;;;;;;24.26;44.98;101982.78;16123778;19;130048;-58
2023/07/10 01:07:35;;;;;;;2.33;1.50;;;;;;;24.26;45.13;101977.19;16112616;19;130620;-58
2023/07/10 01:12:56;;;;;;;2.13;1.40;;;;;;;24.25;45.15;101977.47;16117182;19;130933;-57
2023/07/10 01:18:19;;;;;;;3.28;1.65;;;;;;;24.24;44.98;101990.59;16117356;19;130797;-58
2023/07/10 01:23:41;;;;;;;3.03;1.45;;;;;;;24.24;44.99;101985.00;16113362;19;129772;-58
2023/07/10 01:29:03;;;;;;;3.45;1.70;;;;;;;24.24;44.93;102003.69;16115715;19;129991;-59
2023/07/10 01:34:34;;;;;;;2.67;1.20;;;;;;;24.24;45.06;102004.59;16104191;19;131744;-59
2023/07/10 01:39:56;;;;;;;2.35;1.10;;;;;;;24.22;44.83;101984.38;16111886;19;130940;-58
2023/07/10 01:45:18;;;;;;;2.90;1.67;;;;;;;24.22;45.18;101997.50;16111771;19;133052;-58
2023/07/10 01:50:43;;;;;;;3.00;1.63;;;;;;;24.21;45.08;101993.03;16110080;19;130187;-58
2023/07/10 01:56:06;;;;;;;;;;;;;;;24.17;45.30;101998.28;16114862;19;130079;-57
2023/07/10 02:01:28;;;;;;;5.20;1.48;;;;;;;24.20;45.17;102003.38;16116485;19;129848;-59
2023/07/10 02:06:50;;;;;;;1.95;1.17;;;;;;;24.17;45.40;102003.88;16115681;19;130027;-58
2023/07/10 02:12:12;;;;;;;3.00;1.33;;;;;;;24.18;44.88;101996.34;16106257;19;129670;-57
2023/07/10 02:17:34;;;;;;;1.92;1.20;;;;;;;24.17;45.25;101997.47;16114360;19;135232;-58
2023/07/10 02:22:56;;;;;;;1.33;1.00;;;;;;;24.16;45.42;101991.00;16112043;19;129813;-58
2023/07/10 02:28:18;;;;;;;1.67;1.10;;;;;;;24.15;45.11;101994.06;16110055;19;129739;-58
2023/07/10 02:33:40;;;;;;;2.00;1.20;;;;;;;24.16;45.10;101998.56;16106596;19;130637;-57
2023/07/10 02:39:02;;;;;;;5.05;1.42;;;;;;;24.15;45.28;102006.09;16109221;19;129603;-57
2023/07/10 02:44:24;;;;;;;2.10;0.95;;;;;;;24.14;45.10;101995.16;16108620;19;129784;-55
2023/07/10 02:49:46;;;;;;;1.83;1.10;;;;;;;24.14;45.06;102001.59;16109649;19;130228;-56
2023/07/10 02:55:08;;;;;;;1.30;1.20;;;;;;;24.12;45.21;101999.06;16107451;19;130882;-56
2023/07/10 03:00:30;;;;;;;1.77;1.10;;;;;;;24.11;45.47;102004.94;16107143;19;131161;-56
2023/07/10 03:05:58;;;;;;;2.15;1.17;;;;;;;24.11;45.51;102016.94;16104026;19;130120;-57
2023/07/10 03:11:22;;;;;;;1.52;1.20;;;;;;;24.11;45.12;102022.53;16106822;19;131579;-57
2023/07/10 03:16:44;;;;;;;1.67;1.15;;;;;;;24.10;45.08;102020.00;16108147;19;129652;-56
2023/07/10 03:22:06;;;;;;;1.83;0.90;;;;;;;24.09;45.06;102024.72;16108984;19;130897;-56
2023/07/10 03:27:29;;;;;;;1.35;1.00;;;;;;;24.09;45.06;102035.09;16103677;19;130488;-57
2023/07/10 03:32:51;;;;;;;2.25;1.08;;;;;;;24.07;45.50;102029.72;16109367;19;130433;-55
2023/07/10 03:38:14;;;;;;;2.10;1.00;;;;;;;24.07;45.26;102040.09;16106073;19;130943;-56
2023/07/10 03:43:36;;;;;;;1.95;1.15;;;;;;;24.07;45.05;102037.28;16105922;19;129776;-57
2023/07/10 03:48:58;;;;;;;1.38;1.00;;;;;;;24.06;45.12;102042.00;16106961;19;131477;-55
2023/07/10 03:54:20;;;;;;;1.65;1.20;;;;;;;24.06;45.51;102043.97;16106494;19;133030;-56
2023/07/10 03:59:42;;;;;;;1.50;1.10;;;;;;;24.05;45.11;102045.06;16122632;19;129192;-56
2023/07/10 04:05:04;;;;;;;2.38;0.90;;;;;;;24.04;45.49;102057.34;16123422;19;129883;-56
2023/07/10 04:10:26;;;;;;;1.75;1.15;;;;;;;24.04;45.19;102048.97;16123122;19;129890;-58
2023/07/10 04:16:03;;;;;;;1.20;0.98;;;;;;;24.04;45.14;102055.44;16122729;19;131219;-57
2023/07/10 04:21:28;;;;;;;1.48;0.90;;;;;;;24.03;45.09;102066.84;16121161;19;129645;-57
2023/07/10 04:26:51;;;;;;;1.47;0.90;;;;;;;24.01;45.12;102071.84;16114193;19;131455;-56
2023/07/10 04:32:13;;;;;;;1.92;0.90;;;;;;;24.01;45.32;102066.25;16118055;19;129355;-57
2023/07/10 04:37:35;;;;;;;1.25;1.08;;;;;;;24.00;45.10;102075.75;16122721;19;130019;-57
2023/07/10 04:42:57;;;;;;;0.80;0.75;;;;;;;24.00;45.23;102082.19;16120594;19;129544;-57
2023/07/10 04:48:19;;;;;;;4.47;1.08;;;;;;;23.99;45.08;102080.50;16115372;19;130655;-58
2023/07/10 04:53:41;;;;;;;1.27;0.90;;;;;;;24.00;45.13;102086.94;16117997;19;130232;-56
2023/07/10 04:59:03;;;;;;;1.42;0.88;;;;;;;23.99;45.31;102085.25;16119696;19;130077;-58
2023/07/10 05:04:26;;;;;;;3.10;0.90;;;;;;;24.00;45.25;102092.53;16112239;19;129934;-57
2023/07/10 05:09:48;;;;;;;1.50;0.88;;;;;;;23.99;45.18;102086.09;16115869;19;130784;-58
2023/07/10 05:15:10;;;;;;;1.45;1.00;;;;;;;23.99;45.52;102093.63;16114829;19;130060;-58
2023/07/10 05:20:32;;;;;;;1.52;1.10;;;;;;;23.99;45.13;102090.84;16116765;19;131765;-58
2023/07/10 05:25:56;;;;;;;1.98;1.15;;;;;;;24.00;45.21;102082.19;16117708;19;131416;-58
2023/07/10 05:31:19;;;;;;;4.70;1.17;;;;;;;23.99;45.24;102088.88;16115280;19;134577;-57
2023/07/10 05:36:41;;;;;;;2.20;0.80;;;;;;;23.99;45.42;102090.84;16112386;19;129235;-59
2023/07/10 05:42:03;;;;;;;3.67;0.98;;;;;;;23.99;45.25;102102.03;16119766;19;129189;-58
2023/07/10 05:47:25;;;;;;;2.78;1.27;;;;;;;24.00;45.20;102103.72;16112712;19;130188;-58
2023/07/10 05:52:47;;;;;;;4.90;1.00;;;;;;;24.01;45.05;102102.59;16116426;19;130460;-59
2023/07/10 05:58:09;;;;;;;3.28;1.00;;;;;;;24.02;45.19;102112.66;16113183;19;129395;-58
2023/07/10 06:03:33;;;;;;;1.27;1.02;;;;;;;24.01;44.89;102117.44;16111365;19;129516;-58
2023/07/10 06:08:55;;;;;;;3.70;1.00;;;;;;;24.01;45.09;102117.44;16111329;19;130762;-59
2023/07/10 06:14:17;;;;;;;5.40;1.20;;;;;;;24.03;45.24;102114.38;16115940;19;130744;-58
2023/07/10 06:19:40;;;;;;;4.70;1.23;;;;;;;24.02;44.98;102107.94;16110179;19;130383;-58
2023/07/10 06:25:02;;;;;;;3.42;1.38;;;;;;;24.03;44.74;102105.97;16106715;19;130033;-56
2023/07/10 06:30:24;;;;;;;2.90;1.08;;;;;;;24.02;45.13;102107.94;16112557;19;129542;-59
2023/07/10 06:35:46;;;;;;;2.92;1.20;;;;;;;24.02;45.08;102119.13;16109280;19;129852;-58
2023/07/10 06:41:10;;;;;;;3.42;1.02;;;;;;;24.02;44.54;102123.84;16104163;19;129772;-58
2023/07/10 06:46:35;;;;;;;1.15;1.00;;;;;;;24.04;44.82;102135.63;16106955;19;130931;-58
2023/07/10 06:51:58;;;;;;;2.28;1.15;;;;;;;24.05;44.81;102140.97;16108107;19;131277;-58
2023/07/10 06:57:20;;;;;;;2.00;0.90;;;;;;;24.05;44.38;102131.72;16107413;19;129733;-58
2023/07/10 07:02:42;;;;;;;1.90;0.90;;;;;;;24.06;44.47;102130.63;16109891;19;130994;-58
2023/07/10 07:08:04;;;;;;;2.92;0.80;;;;;;;24.06;44.55;102130.63;16105542;19;129629;-58
2023/07/10 07:13:26;;;;;;;3.05;1.30;;;;;;;24.05;44.70;102129.81;16107544;19;130160;-58
2023/07/10 07:18:50;;;;;;;2.10;1.10;;;;;;;24.07;44.66;102137.91;16111986;19;130210;-58
2023/07/10 07:24:27;;;;;;;1.98;1.10;;;;;;;24.07;44.61;102143.50;16108937;19;129616;-54
2023/07/10 07:29:51;;;;;;;2.67;1.10;;;;;;;24.07;44.34;102138.75;16113190;19;130012;-59
2023/07/10 07:35:13;;;;;;;3.22;0.93;;;;;;;24.08;44.51;102125.63;16124362;19;130016;-58
2023/07/10 07:40:36;;;;;;;1.65;0.90;;;;;;;24.08;44.06;102122.84;16119486;19;129877;-58
2023/07/10 07:45:58;;;;;;;2.08;1.00;;;;;;;24.09;44.25;102118.94;16119510;19;131535;-58
2023/07/10 07:51:20;;;;;;;3.13;1.10;;;;;;;24.09;44.32;102125.38;16121716;19;130367;-58
2023/07/10 07:56:42;;;;;;;3.22;1.10;;;;;;;24.09;44.43;102136.56;16124673;19;130123;-58
2023/07/10 08:02:04;;;;;;;1.80;0.80;;;;;;;24.09;44.05;102133.75;16122939;19;130900;-58
2023/07/10 08:07:27;;;;;;;3.08;1.33;;;;;;;24.11;44.33;102133.53;16122180;19;130939;-58
2023/07/10 08:12:49;;;;;;;2.75;1.33;;;;;;;24.10;44.27;102127.06;16122599;19;130115;-59
2023/07/10 08:18:11;;;;;;;3.85;0.98;;;;;;;24.11;44.38;102130.72;16121028;19;130840;-58
2023/07/10 08:23:33;;;;;;;2.33;1.00;;;;;;;24.11;44.27;102136.31;16122003;19;130067;-58
2023/07/10 08:28:55;;;;;;;1.58;0.80;;;;;;;24.11;44.47;102133.53;16121227;19;129365;-58
2023/07/10 08:34:17;;;;;;;2.13;0.98;;;;;;;24.12;44.28;102127.66;16123879;19;130203;-59
2023/07/10 08:39:40;;;;;;;1.90;1.35;;;;;;;24.12;44.05;102129.63;16114115;19;131027;-58
2023/07/10 08:45:03;;;;;;;2.03;1.08;;;;;;;24.13;43.96;102136.88;16117767;19;129601;-58
2023/07/10 08:50:31;;;;;;;2.70;1.10;;;;;;;24.14;44.14;102124.59;16110415;19;129784;-58
2023/07/10 08:56:19;;;;;;;2.33;1.00;;;;;;;24.15;44.07;102119.88;16112926;19;131731;-58
2023/07/10 09:01:46;;;;;;;2.50;0.70;;;;;;;24.15;43.60;102125.47;16119734;19;129588;-58
2023/07/10 09:07:09;;;;;;;3.22;1.05;;;;;;;24.13;43.98;102134.09;16116345;19;129491;-58
2023/07/10 09:12:37;;;;;;;2.42;1.00;;;;;;;24.15;43.49;102129.09;16113175;19;129459;-59
2023/07/10 09:18:20;;;;;;;3.20;1.23;;;;;;;24.15;43.82;102126.31;16114833;19;130439;-58
2023/07/10 09:23:43;;;;;;;2.25;1.20;;;;;;;24.15;43.60;102123.50;16115324;19;130231;-58
2023/07/10 09:29:31;;;;;;;2.33;0.90;;;;;;;24.16;43.61;102130.78;16116545;19;129665;-57
2023/07/10 09:34:58;;;;;;;1.90;0.90;;;;;;;24.15;43.41;102129.09;16112841;19;129502;-58
2023/07/10 09:40:38;;;;;;;3.65;1.23;;;;;;;24.22;43.39;102127.00;16110827;19;130859;-58
2023/07/10 09:46:00;;;;;;;2.50;0.90;;;;;;;24.32;43.34;102123.50;16111753;19;130269;-58
2023/07/10 09:51:23;;;;;;;4.53;1.20;;;;;;;24.43;43.18;102124.53;16113741;19;131101;-55
2023/07/10 09:56:47;;;;;;;2.22;1.00;;;;;;;24.52;42.90;102116.53;16112415;19;129996;-58
2023/07/10 10:02:20;;;;;;;18.70;1.40;;;;;;;24.63;42.87;102123.09;16114311;19;129988;-62
2023/07/10 10:07:44;;;;;;;8.68;1.80;;;;;;;24.63;42.69;102111.91;16112590;19;130451;-62
2023/07/10 10:13:21;;;;;;;6.03;1.45;;;;;;;24.63;42.79;102115.56;16113767;19;129255;-62
2023/07/10 10:19:03;;;;;;;6.28;1.05;;;;;;;24.63;43.20;102112.78;16109979;19;129777;-62
2023/07/10 10:24:29;;;;;;;2.92;1.02;;;;;;;24.61;43.14;102101.00;16114884;19;129937;-61
2023/07/10 10:30:00;;;;;;;12.73;1.60;;;;;;;24.61;43.12;102102.97;16115346;19;131186;-65
2023/07/10 10:35:35;;;;;;;12.95;1.75;;;;;;;24.62;43.07;102099.03;16111892;19;129357;-62
2023/07/10 10:41:03;;;;;;;;;;;;;;;24.57;43.18;102103.47;16110141;19;130926;-62
2023/07/10 10:46:51;;;;;;;12.57;1.70;;;;;;;24.62;43.36;102107.44;16111785;19;129469;-62
2023/07/10 10:52:34;;;;;;;11.40;1.35;;;;;;;24.60;42.89;102113.28;16108113;19;131612;-62
2023/07/10 10:58:25;;;;;;;7.65;1.10;;;;;;;24.61;43.23;102108.56;16112247;19;129606;-61
2023/07/10 11:03:55;;;;;;;3.30;0.93;;;;;;;24.61;43.08;102106.59;16113433;19;130824;-62
2023/07/10 11:09:20;;;;;;;4.53;1.15;;;;;;;24.62;43.23;102108.28;16128025;19;129768;-62
2023/07/10 11:14:44;;;;;;;10.32;0.95;;;;;;;24.66;43.01;102091.81;16124221;19;130147;-61
2023/07/10 11:20:07;;;;;;;7.68;1.13;;;;;;;24.65;43.00;102087.34;16120682;19;130424;-61
2023/07/10 11:25:38;;;;;;;9.82;1.45;;;;;;;24.69;43.05;102088.50;16125593;19;129834;-62
2023/07/10 11:31:30;;;;;;;6.60;1.13;;;;;;;24.71;43.36;102094.69;16124974;19;129078;-62
2023/07/10 11:36:52;;;;;;;6.13;1.45;;;;;;;24.71;43.11;102083.50;16123227;19;130520;-61
2023/07/10 11:42:17;;;;;;;5.50;1.20;;;;;;;24.71;43.08;102078.75;16124583;19;129578;-61
2023/07/10 11:47:45;;;;;;;4.47;0.93;;;;;;;24.72;43.49;102066.44;16123551;19;129574;-62
2023/07/10 11:53:13;;;;;;;7.95;1.30;;;;;;;24.77;43.27;102062.84;16123051;19;131753;-61
2023/07/10 11:58:37;;;;;;;3.70;0.95;;;;;;;24.78;43.27;102058.97;16126212;19;129629;-62
2023/07/10 12:03:59;;;;;;;6.82;1.00;;;;;;;24.76;43.14;102061.16;16123186;19;130638;-61
2023/07/10 12:09:21;;;;;;;4.05;1.00;;;;;;;24.77;43.14;102057.25;16124995;19;129610;-62
2023/07/10 12:14:43;;;;;;;9.25;1.20;;;;;;;24.79;43.21;102045.81;16120826;19;129540;-62
2023/07/10 12:20:33;;;;;;;7.18;1.30;;;;;;;24.78;43.26;102042.16;16121479;19;130919;-61
2023/07/10 12:25:58;;;;;;;9.35;0.90;;;;;;;24.77;43.30;102037.69;16124948;19;130000;-62
2023/07/10 12:31:21;;;;;;;3.78;1.08;;;;;;;24.75;43.53;102033.44;16122993;19;129426;-61
2023/07/10 12:36:43;;;;;;;6.43;1.00;;;;;;;24.75;43.23;102033.44;16112933;19;129831;-61
2023/07/10 12:42:32;;;;;;;4.80;1.00;;;;;;;24.74;43.30;102029.78;16120253;19;130755;-61
2023/07/10 12:48:03;;;;;;;4.20;1.05;;;;;;;24.73;43.10;102020.56;16120499;19;130365;-61
2023/07/10 12:53:33;;;;;;;4.55;0.93;;;;;;;24.73;43.45;102014.13;16117911;19;130988;-61
2023/07/10 12:58:58;;;;;;;4.90;1.25;;;;;;;24.73;43.27;102006.56;16115400;19;130899;-61
2023/07/10 13:04:25;;;;;;;5.13;0.90;;;;;;;24.75;43.23;101997.91;16118532;19;129690;-61
2023/07/10 13:09:56;;;;;;;5.85;0.93;;;;;;;24.75;42.94;101997.91;16117691;19;130184;-61
2023/07/10 13:15:20;;;;;;;2.03;0.82;;;;;;;24.74;42.90;101985.03;16119587;19;131625;-60
2023/07/10 13:20:42;;;;;;;4.63;1.00;;;;;;;24.75;42.90;101991.47;16121103;19;129637;-62
2023/07/10 13:26:16;;;;;;;3.92;0.93;;;;;;;24.77;42.92;101990.09;16114921;19;129715;-62
2023/07/10 13:31:38;;;;;;;3.25;0.90;;;;;;;24.75;42.70;101981.13;16116777;19;130379;-61
2023/07/10 13:37:00;;;;;;;4.05;1.23;;;;;;;24.75;42.78;101980.28;16115094;19;129701;-61
2023/07/10 13:42:21;;;;;;;4.68;1.02;;;;;;;24.77;42.75;101978.91;16116920;19;132841;-60
2023/07/10 13:47:43;;;;;;;4.50;0.90;;;;;;;24.78;42.93;101980.59;16121468;19;130928;-62
2023/07/10 13:53:07;;;;;;;6.68;1.02;;;;;;;24.78;42.66;101969.41;16111741;19;131033;-62
2023/07/10 13:58:29;;;;;;;2.38;0.73;;;;;;;24.81;42.66;101970.81;16112360;19;129553;-61
2023/07/10 14:04:03;;;;;;;2.35;0.82;;;;;;;24.82;42.40;101973.38;16191803;19;131018;-62
2023/07/10 14:09:30;;;;;;;3.85;0.95;;;;;;;24.83;42.76;101966.66;16193633;19;129335;-62
2023/07/10 14:14:52;;;;;;;4.03;1.10;;;;;;;24.87;42.55;101966.97;16193974;19;129591;-62
2023/07/10 14:20:21;;;;;;;3.83;1.15;;;;;;;24.91;42.69;101962.59;16190209;19;133496;-61
2023/07/10 14:25:44;;;;;;;3.50;0.88;;;;;;;24.94;42.81;101955.59;16189784;19;130194;-61
2023/07/10 14:31:11;;;;;;;2.97;1.10;;;;;;;24.95;42.44;101952.53;16188982;19;129478;-62
2023/07/10 14:36:33;;;;;;;1.73;0.95;;;;;;;24.96;42.57;101943.03;16185487;19;130228;-61
2023/07/10 14:41:55;;;;;;;3.13;1.23;;;;;;;24.98;42.59;101942.78;16188940;19;130399;-61
2023/07/10 14:47:31;;;;;;;2.65;0.82;;;;;;;25.00;42.54;101937.72;16193096;19;132463;-64
2023/07/10 14:52:53;;;;;;;1.42;0.80;;;;;;;24.97;42.36;101930.72;16198008;19;131145;-61
2023/07/10 14:58:17;;;;;;;2.75;1.17;;;;;;;25.00;42.60;101920.94;16191635;19;129822;-61
2023/07/10 15:03:40;;;;;;;5.00;1.63;;;;;;;24.99;42.67;101919.25;16199866;19;129265;-63
2023/07/10 15:09:02;;;;;;;15.60;2.03;;;;;;;24.99;42.28;101905.25;16192464;19;129673;-60
2023/07/10 15:14:24;;;;;;;10.63;1.65;;;;;;;24.98;42.18;101900.78;16157312;19;129871;-62
2023/07/10 15:19:47;;;;;;;7.78;1.52;;;;;;;24.98;42.47;101901.63;16142459;19;130949;-61
2023/07/10 15:25:21;;;;;;;18.13;2.05;;;;;;;24.97;42.12;101901.91;16149419;19;129909;-60
2023/07/10 15:30:46;;;;;;;9.68;1.95;;;;;;;24.95;42.32;101896.53;16183621;19;130173;-62
2023/07/10 15:36:14;;;;;;;;;;;;;;;24.93;42.12;101889.53;16158129;19;133319;-63
2023/07/10 15:41:37;;;;;;;8.20;1.90;;;;;;;24.94;42.39;101875.25;16134366;19;130786;-62
2023/07/10 15:46:59;;;;;;;17.58;2.05;;;;;;;24.94;42.26;101885.63;16132959;19;129626;-61
2023/07/10 15:52:31;;;;;;;7.20;2.17;;;;;;;24.94;41.99;101866.03;16129752;19;130413;-60
2023/07/10 15:57:54;;;;;;;7.25;1.65;;;;;;;24.92;41.72;101859.84;16135257;19;130784;-61
2023/07/10 16:03:25;;;;;;;10.73;1.40;;;;;;;24.94;41.56;101850.06;16117230;19;131385;-61
2023/07/10 16:08:48;;;;;;;8.13;1.63;;;;;;;24.94;41.70;101840.84;16116998;19;129662;-62
2023/07/10 16:14:16;;;;;;;9.48;1.70;;;;;;;24.95;41.73;101845.34;16116470;19;129594;-62
2023/07/10 16:19:39;;;;;;;5.22;1.48;;;;;;;24.93;41.78;101834.38;16117965;19;130670;-63
2023/07/10 16:25:01;;;;;;;5.43;1.83;;;;;;;24.93;41.57;101825.16;16116631;19;130711;-63
2023/07/10 16:30:25;;;;;;;8.05;1.90;;;;;;;24.96;41.71;101821.81;16117084;19;130129;-65
2023/07/10 16:35:48;;;;;;;8.13;1.70;;;;;;;24.94;41.69;101822.06;16121434;19;129567;-63
2023/07/10 16:41:17;;;;;;;7.55;1.92;;;;;;;24.96;41.52;101827.44;16119935;19;130302;-63
2023/07/10 16:46:39;;;;;;;5.35;1.45;;;;;;;24.94;41.69;101822.06;16121161;19;129659;-62
2023/07/10 16:52:01;;;;;;;4.45;1.73;;;;;;;24.95;41.66;101817.34;16112552;19;130810;-62
2023/07/10 16:57:24;;;;;;;8.20;1.80;;;;;;;24.96;41.53;101814.25;16117277;19;130148;-63
2023/07/10 17:02:51;;;;;;;5.38;1.70;;;;;;;24.95;41.37;101806.97;16119360;19;130042;-63
2023/07/10 17:08:17;;;;;;;7.60;1.50;;;;;;;24.94;41.27;101810.88;16118028;19;134733;-63
2023/07/10 17:13:39;;;;;;;5.78;1.60;;;;;;;24.93;41.07;101803.59;16118460;19;130610;-63
2023/07/10 17:19:01;;;;;;;3.80;1.42;;;;;;;24.94;41.26;101798.84;16114675;19;131395;-62
2023/07/10 17:24:23;;;;;;;6.20;1.42;;;;;;;24.95;41.03;101800.53;16106759;19;131775;-62
2023/07/10 17:29:45;;;;;;;4.07;1.35;;;;;;;24.95;40.96;101786.56;16119456;19;129321;-62
2023/07/10 17:35:16;;;;;;;6.22;1.92;;;;;;;24.96;40.92;101785.44;16112324;19;129649;-61
2023/07/10 17:40:37;;;;;;;4.88;1.60;;;;;;;24.95;41.14;101775.34;16114505;19;129719;-61
2023/07/10 17:46:05;;;;;;;3.75;1.63;;;;;;;24.95;41.04;101778.16;16116644;19;129505;-61
2023/07/10 17:51:32;;;;;;;5.05;1.42;;;;;;;24.95;40.91;101776.19;16114741;19;130388;-61
2023/07/10 17:56:54;;;;;;;4.07;1.55;;;;;;;24.94;40.81;101766.09;16113403;19;130752;-61
2023/07/10 18:02:24;;;;;;;2.58;1.33;;;;;;;24.94;40.97;101759.66;16110896;19;129408;-60
2023/07/10 18:07:46;;;;;;;3.10;1.20;;;;;;;24.93;40.80;101769.19;16113490;19;129382;-61
2023/07/10 18:13:30;;;;;;;5.80;1.40;;;;;;;24.94;41.08;101776.47;16115253;19;129532;-62
2023/07/10 18:18:52;;;;;;;3.80;1.50;;;;;;;24.91;40.92;101777.00;16116532;19;129696;-61
2023/07/10 18:24:18;;;;;;;5.50;1.52;;;;;;;24.90;41.27;101772.50;16111059;19;130661;-63
2023/07/10 18:29:40;;;;;;;4.88;1.08;;;;;;;24.87;40.80;101765.47;16111210;19;129695;-64
2023/07/10 18:35:04;;;;;;;4.72;1.35;;;;;;;24.85;40.52;101757.34;16110459;19;130883;-61
2023/07/10 18:40:26;;;;;;;2.85;1.40;;;;;;;24.85;40.57;101757.34;16111962;19;129780;-63
2023/07/10 18:45:52;;;;;;;4.05;1.40;;;;;;;24.85;40.91;101756.50;16116799;19;131984;-63
2023/07/10 18:51:19;;;;;;;2.90;1.33;;;;;;;24.83;40.65;101759.56;16131375;19;129773;-64
2023/07/10 18:56:41;;;;;;;4.95;1.30;;;;;;;24.83;40.85;101751.19;16129430;19;129281;-64
2023/07/10 19:02:03;;;;;;;4.55;1.63;;;;;;;24.82;40.79;101741.09;16128189;19;130124;-64
2023/07/10 19:07:26;;;;;;;2.30;1.15;;;;;;;24.82;40.78;101735.50;16125645;19;129454;-64
2023/07/10 19:12:48;;;;;;;7.05;1.50;;;;;;;24.81;40.71;101741.34;16125001;19;129729;-67
2023/07/10 19:18:16;;;;;;;6.18;1.58;;;;;;;24.80;40.38;101729.31;16127840;19;130329;-66
2023/07/10 19:23:38;;;;;;;9.77;1.80;;;;;;;24.78;39.23;101717.53;16122664;19;129893;-66
2023/07/10 19:29:00;;;;;;;2.97;1.63;;;;;;;24.78;39.01;101725.94;16124048;19;129853;-66
2023/07/10 19:34:22;;;;;;;5.07;1.38;;;;;;;24.71;38.93;101716.94;16120377;19;131513;-64
2023/07/10 19:39:44;;;;;;;3.03;1.33;;;;;;;24.72;38.88;101704.66;16120422;19;131258;-65
2023/07/10 19:45:08;;;;;;;3.65;1.42;;;;;;;24.73;39.06;101714.72;16121044;19;129611;-65
2023/07/10 19:50:30;;;;;;;6.15;1.38;;;;;;;24.74;38.87;101716.38;16124010;19;130800;-65
2023/07/10 19:55:55;;;;;;;3.15;1.50;;;;;;;24.72;38.71;101704.66;16122273;19;129983;-65
2023/07/10 20:01:18;;;;;;;15.75;2.05;;;;;;;24.66;38.68;101708.50;16119952;19;130005;-67
2023/07/10 20:06:41;;;;;;;6.28;1.58;;;;;;;24.65;39.13;101702.09;16121807;19;130116;-65
2023/07/10 20:12:14;;;;;;;9.02;1.40;;;;;;;24.65;39.13;101698.44;16122966;19;130252;-66
2023/07/10 20:17:40;;;;;;;8.68;2.00;;;;;;;24.62;39.64;101691.41;16121407;19;130205;-65
2023/07/10 20:23:09;;;;;;;6.20;1.95;;;;;;;24.58;39.26;101693.91;16120157;19;131017;-57
2023/07/10 20:28:40;;;;;;;2.45;1.63;;;;;;;24.61;39.54;101688.91;16117523;19;129853;-61
2023/07/10 20:34:03;;;;;;;5.32;1.92;;;;;;;24.65;39.63;101690.03;16113089;19;130368;-61
2023/07/10 20:39:25;;;;;;;3.67;1.58;;;;;;;24.70;39.67;101690.06;16112150;19;130175;-60
2023/07/10 20:44:47;;;;;;;12.45;1.50;;;;;;;24.71;39.96;101687.00;16104281;19;131415;-56
2023/07/10 20:50:13;;;;;;;11.15;1.80;;;;;;;24.67;40.40;101677.47;16109178;19;130239;-58
2023/07/10 20:55:35;;;;;;;6.22;1.58;;;;;;;24.67;40.28;101687.81;16115747;19;130373;-56
2023/07/10 21:00:57;;;;;;;5.40;1.48;;;;;;;24.66;40.26;101680.53;16117211;19;129807;-58
2023/07/10 21:06:23;;;;;;;6.75;1.88;;;;;;;24.66;40.48;101675.78;16112710;19;130307;-58
2023/07/10 21:11:45;;;;;;;5.35;1.60;;;;;;;24.66;40.15;101669.34;16109507;19;129777;-58
2023/07/10 21:17:14;;;;;;;5.35;1.30;;;;;;;24.66;40.26;101670.19;16113042;19;131895;-56
2023/07/10 21:22:36;;;;;;;3.20;1.30;;;;;;;24.66;40.79;101667.41;16107878;19;129890;-57
2023/07/10 21:27:58;;;;;;;4.20;1.58;;;;;;;24.67;40.81;101679.41;16113758;19;130846;-56
2023/07/10 21:33:23;;;;;;;3.10;1.40;;;;;;;24.65;40.63;101681.63;16106680;19;130230;-56
2023/07/10 21:38:46;;;;;;;4.88;1.75;;;;;;;24.64;40.67;101680.81;16111322;19;132070;-56
2023/07/10 21:44:19;;;;;;;5.15;1.70;;;;;;;24.64;40.74;101674.34;16112857;19;132767;-52
2023/07/10 21:49:41;;;;;;;5.40;1.55;;;;;;;24.63;40.60;101678.25;16111917;19;130656;-55
2023/07/10 21:55:03;;;;;;;3.38;1.40;;;;;;;24.62;40.61;101673.78;16110491;19;129804;-58
2023/07/10 22:00:26;;;;;;;1.38;1.23;;;;;;;24.63;40.67;101678.25;16107553;19;131030;-55
2023/07/10 22:05:49;;;;;;;2.45;1.25;;;;;;;24.62;40.90;101668.19;16104243;19;130119;-55
2023/07/10 22:11:36;;;;;;;4.93;1.90;;;;;;;24.61;40.58;101660.94;16108321;19;129503;-57
2023/07/10 22:16:58;;;;;;;7.47;1.63;;;;;;;24.58;40.90;101657.56;16107402;19;130474;-58
2023/07/10 22:22:26;;;;;;;2.85;1.23;;;;;;;24.58;41.24;101660.34;16113769;19;130600;-57
2023/07/10 22:27:48;;;;;;;2.33;1.13;;;;;;;24.57;40.97;101655.00;16125108;19;130644;-56
2023/07/10 22:33:16;;;;;;;3.47;1.27;;;;;;;24.56;41.10;101643.00;16121953;19;129634;-55
2023/07/10 22:38:38;;;;;;;3.55;1.33;;;;;;;24.55;40.98;101634.88;16122732;19;129701;-54
2023/07/10 22:44:10;;;;;;;4.10;1.33;;;;;;;24.55;40.80;101626.50;16122746;19;129823;-56
2023/07/10 22:49:32;;;;;;;2.67;1.38;;;;;;;24.52;41.13;101630.66;16124468;19;130342;-56
2023/07/10 22:54:54;;;;;;;2.25;1.20;;;;;;;24.51;41.16;101623.38;16118951;19;129638;-56
2023/07/10 23:00:21;;;;;;;2.97;1.20;;;;;;;24.52;41.16;101619.47;16117236;19;129804;-56
2023/07/10 23:05:43;;;;;;;4.47;1.27;;;;;;;24.51;40.98;101622.53;16115361;19;129783;-54
2023/07/10 23:11:05;;;;;;;3.13;1.20;;;;;;;24.50;41.35;101621.69;16114909;19;130976;-57
2023/07/10 23:16:27;;;;;;;2.38;1.10;;;;;;;24.49;41.35;101613.56;16118529;19;130113;-56
2023/07/10 23:21:49;;;;;;;1.40;1.00;;;;;;;24.50;41.16;101609.66;16113017;19;130381;-57
2023/07/10 23:27:11;;;;;;;1.67;0.90;;;;;;;24.49;41.38;101608.84;16119058;19;129355;-53
2023/07/10 23:32:34;;;;;;;1.73;0.88;;;;;;;24.48;41.46;101598.75;16115476;19;134007;-57
2023/07/10 23:37:56;;;;;;;2.53;1.25;;;;;;;24.48;41.68;101595.97;16116981;19;130643;-56
2023/07/10 23:43:18;;;;;;;1.90;0.90;;;;;;;24.47;41.15;101593.41;16117376;19;129580;-55
2023/07/10 23:48:41;;;;;;;2.35;1.08;;;;;;;24.47;41.18;101587.81;16112915;19;129945;-54
2023/07/10 23:54:03;;;;;;;1.60;0.90;;;;;;;24.46;41.37;101587.00;16117615;19;129702;-54
2023/07/10 23:59:25;;;;;;;1.95;1.10;;;;;;;24.46;41.56;101570.22;16115845;19;131474;-52
